sensor_id;sensor_type;location;lat;lon;timestamp;pressure;altitude;pressure_sealevel;temperature;humidity
61436;BME280;47304;47.456;19.160;2023-03-26T00:01:15;99755.65;;;8.75;56.36
61436;BME280;47304;47.456;19.160;2023-03-26T00:03:43;99758.64;;;8.72;56.39
61436;BME280;47304;47.456;19.160;2023-03-26T00:08:39;99749.21;;;8.69;56.34
61436;BME280;47304;47.456;19.160;2023-03-26T00:11:08;99746.24;;;8.68;56.33
61436;BME280;47304;47.456;19.160;2023-03-26T00:13:35;99742.94;;;8.67;56.37
61436;BME280;47304;47.456;19.160;2023-03-26T00:16:02;99739.09;;;8.67;56.28
61436;BME280;47304;47.456;19.160;2023-03-26T00:18:30;99738.39;;;8.67;56.30
61436;BME280;47304;47.456;19.160;2023-03-26T00:20:57;99734.02;;;8.67;56.38
61436;BME280;47304;47.456;19.160;2023-03-26T00:23:25;99732.63;;;8.66;56.42
61436;BME280;47304;47.456;19.160;2023-03-26T00:25:53;99734.04;;;8.63;56.35
61436;BME280;47304;47.456;19.160;2023-03-26T00:28:21;99730.37;;;8.62;56.34
61436;BME280;47304;47.456;19.160;2023-03-26T00:30:55;99729.86;;;8.59;56.50
61436;BME280;47304;47.456;19.160;2023-03-26T00:33:23;99730.91;;;8.56;56.51
61436;BME280;47304;47.456;19.160;2023-03-26T00:35:57;99735.62;;;8.55;56.43
61436;BME280;47304;47.456;19.160;2023-03-26T00:38:26;99733.86;;;8.54;56.58
61436;BME280;47304;47.456;19.160;2023-03-26T00:40:53;99733.02;;;8.53;56.57
61436;BME280;47304;47.456;19.160;2023-03-26T00:43:21;99734.06;;;8.50;56.59
61436;BME280;47304;47.456;19.160;2023-03-26T00:45:51;99733.55;;;8.49;56.63
61436;BME280;47304;47.456;19.160;2023-03-26T00:48:20;99729.33;;;8.47;56.67
61436;BME280;47304;47.456;19.160;2023-03-26T00:51:04;99727.59;;;8.43;56.72
61436;BME280;47304;47.456;19.160;2023-03-26T00:53:31;99725.48;;;8.41;56.80
61436;BME280;47304;47.456;19.160;2023-03-26T00:55:58;99723.41;;;8.39;56.71
61436;BME280;47304;47.456;19.160;2023-03-26T00:58:26;99726.02;;;8.38;56.81
61436;BME280;47304;47.456;19.160;2023-03-26T01:00:55;99717.11;;;8.36;56.82
61436;BME280;47304;47.456;19.160;2023-03-26T01:03:24;99717.48;;;8.37;56.75
61436;BME280;47304;47.456;19.160;2023-03-26T01:06:05;99715.20;;;8.37;56.70
61436;BME280;47304;47.456;19.160;2023-03-26T01:08:43;99713.64;;;8.37;56.63
61436;BME280;47304;47.456;19.160;2023-03-26T01:11:19;99714.67;;;8.37;56.61
61436;BME280;47304;47.456;19.160;2023-03-26T01:13:53;99719.40;;;8.39;56.61
61436;BME280;47304;47.456;19.160;2023-03-26T01:16:28;99716.24;;;8.39;56.62
61436;BME280;47304;47.456;19.160;2023-03-26T01:18:56;99712.59;;;8.39;56.57
61436;BME280;47304;47.456;19.160;2023-03-26T01:21:26;99710.65;;;8.41;56.59
61436;BME280;47304;47.456;19.160;2023-03-26T01:23:57;99714.84;;;8.42;56.69
61436;BME280;47304;47.456;19.160;2023-03-26T01:31:55;99719.21;;;8.41;56.72
61436;BME280;47304;47.456;19.160;2023-03-26T01:35:11;99721.31;;;8.40;56.68
61436;BME280;47304;47.456;19.160;2023-03-26T01:40:28;99719.05;;;8.35;56.86
61436;BME280;47304;47.456;19.160;2023-03-26T01:43:29;99717.32;;;8.34;56.78
61436;BME280;47304;47.456;19.160;2023-03-26T01:45:53;99717.48;;;8.32;56.91
61436;BME280;47304;47.456;19.160;2023-03-26T01:48:28;99721.86;;;8.31;56.88
61436;BME280;47304;47.456;19.160;2023-03-26T01:50:55;99722.90;;;8.31;56.87
61436;BME280;47304;47.456;19.160;2023-03-26T01:53:23;99719.41;;;8.30;56.84
61436;BME280;47304;47.456;19.160;2023-03-26T01:59:06;99718.02;;;8.30;56.80
61436;BME280;47304;47.456;19.160;2023-03-26T02:01:52;99717.83;;;8.30;56.69
61436;BME280;47304;47.456;19.160;2023-03-26T02:04:29;99713.30;;;8.27;56.65
61436;BME280;47304;47.456;19.160;2023-03-26T02:07:08;99721.15;;;8.28;56.77
61436;BME280;47304;47.456;19.160;2023-03-26T02:09:44;99719.75;;;8.28;56.60
61436;BME280;47304;47.456;19.160;2023-03-26T02:12:14;99718.02;;;8.29;56.45
61436;BME280;47304;47.456;19.160;2023-03-26T02:14:42;99725.34;;;8.30;56.50
61436;BME280;47304;47.456;19.160;2023-03-26T02:17:09;99729.88;;;8.30;56.48
61436;BME280;47304;47.456;19.160;2023-03-26T02:19:37;99728.30;;;8.30;56.54
61436;BME280;47304;47.456;19.160;2023-03-26T02:22:04;99733.38;;;8.30;56.51
61436;BME280;47304;47.456;19.160;2023-03-26T02:24:30;99735.11;;;8.29;56.52
61436;BME280;47304;47.456;19.160;2023-03-26T02:26:57;99732.32;;;8.28;56.65
61436;BME280;47304;47.456;19.160;2023-03-26T02:29:23;99733.38;;;8.27;56.62
61436;BME280;47304;47.456;19.160;2023-03-26T02:31:50;99734.95;;;8.25;56.63
61436;BME280;47304;47.456;19.160;2023-03-26T02:34:17;99733.20;;;8.25;56.76
61436;BME280;47304;47.456;19.160;2023-03-26T02:36:43;99730.58;;;8.24;56.80
61436;BME280;47304;47.456;19.160;2023-03-26T02:39:10;99730.94;;;8.22;56.80
61436;BME280;47304;47.456;19.160;2023-03-26T02:41:37;99725.00;;;8.19;56.87
61436;BME280;47304;47.456;19.160;2023-03-26T02:44:04;99725.35;;;8.17;56.95
61436;BME280;47304;47.456;19.160;2023-03-26T02:46:32;99723.27;;;8.17;57.05
61436;BME280;47304;47.456;19.160;2023-03-26T02:48:59;99721.17;;;8.17;56.95
61436;BME280;47304;47.456;19.160;2023-03-26T02:51:25;99721.88;;;8.16;56.97
61436;BME280;47304;47.456;19.160;2023-03-26T02:53:52;99716.11;;;8.16;56.97
61436;BME280;47304;47.456;19.160;2023-03-26T02:56:19;99717.16;;;8.15;57.01
61436;BME280;47304;47.456;19.160;2023-03-26T02:58:45;99714.72;;;8.12;57.13
61436;BME280;47304;47.456;19.160;2023-03-26T03:01:12;99711.92;;;8.09;57.18
61436;BME280;47304;47.456;19.160;2023-03-26T03:03:39;99706.00;;;8.07;57.21
61436;BME280;47304;47.456;19.160;2023-03-26T03:06:05;99707.39;;;8.06;57.27
61436;BME280;47304;47.456;19.160;2023-03-26T03:08:32;99716.11;;;8.03;57.32
61436;BME280;47304;47.456;19.160;2023-03-26T03:11:01;99719.96;;;7.99;57.44
61436;BME280;47304;47.456;19.160;2023-03-26T03:13:28;99722.40;;;7.97;57.55
61436;BME280;47304;47.456;19.160;2023-03-26T03:15:55;99726.06;;;7.97;57.72
61436;BME280;47304;47.456;19.160;2023-03-26T03:18:22;99721.18;;;7.95;57.78
61436;BME280;47304;47.456;19.160;2023-03-26T03:20:48;99719.45;;;7.92;57.85
61436;BME280;47304;47.456;19.160;2023-03-26T03:23:15;99718.21;;;7.90;58.04
61436;BME280;47304;47.456;19.160;2023-03-26T03:25:42;99717.68;;;7.86;57.94
61436;BME280;47304;47.456;19.160;2023-03-26T03:28:09;99716.81;;;7.82;57.98
61436;BME280;47304;47.456;19.160;2023-03-26T03:30:36;99721.17;;;7.77;58.06
61436;BME280;47304;47.456;19.160;2023-03-26T03:33:02;99723.44;;;7.73;58.27
61436;BME280;47304;47.456;19.160;2023-03-26T03:35:29;99723.61;;;7.69;58.55
61436;BME280;47304;47.456;19.160;2023-03-26T03:37:56;99722.73;;;7.64;58.59
61436;BME280;47304;47.456;19.160;2023-03-26T03:40:24;99720.28;;;7.57;58.73
61436;BME280;47304;47.456;19.160;2023-03-26T03:42:51;99721.15;;;7.51;58.93
61436;BME280;47304;47.456;19.160;2023-03-26T03:45:18;99718.53;;;7.45;59.15
61436;BME280;47304;47.456;19.160;2023-03-26T03:47:44;99720.08;;;7.41;59.13
61436;BME280;47304;47.456;19.160;2023-03-26T03:50:11;99725.30;;;7.36;59.20
61436;BME280;47304;47.456;19.160;2023-03-26T03:52:37;99734.88;;;7.31;59.33
61436;BME280;47304;47.456;19.160;2023-03-26T03:55:04;99742.17;;;7.25;59.55
61436;BME280;47304;47.456;19.160;2023-03-26T03:57:31;99747.91;;;7.21;59.79
61436;BME280;47304;47.456;19.160;2023-03-26T03:59:58;99745.45;;;7.16;59.65
61436;BME280;47304;47.456;19.160;2023-03-26T04:02:25;99741.60;;;7.12;59.79
61436;BME280;47304;47.456;19.160;2023-03-26T04:04:52;99742.63;;;7.06;60.05
61436;BME280;47304;47.456;19.160;2023-03-26T04:07:18;99744.87;;;7.01;60.09
61436;BME280;47304;47.456;19.160;2023-03-26T04:09:45;99747.64;;;6.98;60.12
61436;BME280;47304;47.456;19.160;2023-03-26T04:12:12;99747.45;;;6.94;60.19
61436;BME280;47304;47.456;19.160;2023-03-26T04:14:39;99749.52;;;6.92;60.44
61436;BME280;47304;47.456;19.160;2023-03-26T04:17:05;99750.57;;;6.90;60.62
61436;BME280;47304;47.456;19.160;2023-03-26T04:19:32;99750.73;;;6.87;60.84
61436;BME280;47304;47.456;19.160;2023-03-26T04:21:59;99750.37;;;6.85;60.94
61436;BME280;47304;47.456;19.160;2023-03-26T04:24:25;99750.71;;;6.84;60.88
61436;BME280;47304;47.456;19.160;2023-03-26T04:26:52;99752.10;;;6.82;60.94
61436;BME280;47304;47.456;19.160;2023-03-26T04:29:18;99751.92;;;6.82;60.83
61436;BME280;47304;47.456;19.160;2023-03-26T04:31:45;99746.69;;;6.78;60.93
61436;BME280;47304;47.456;19.160;2023-03-26T04:34:21;99741.80;;;6.74;61.01
61436;BME280;47304;47.456;19.160;2023-03-26T04:36:49;99744.20;;;6.72;61.01
61436;BME280;47304;47.456;19.160;2023-03-26T04:39:16;99748.05;;;6.69;61.12
61436;BME280;47304;47.456;19.160;2023-03-26T04:41:43;99740.19;;;6.67;61.13
61436;BME280;47304;47.456;19.160;2023-03-26T04:44:09;99740.52;;;6.63;61.33
61436;BME280;47304;47.456;19.160;2023-03-26T04:46:36;99741.37;;;6.61;61.51
61436;BME280;47304;47.456;19.160;2023-03-26T04:49:02;99742.40;;;6.59;61.48
61436;BME280;47304;47.456;19.160;2023-03-26T04:51:35;99747.45;;;6.58;61.58
61436;BME280;47304;47.456;19.160;2023-03-26T04:54:04;99749.55;;;6.60;61.72
61436;BME280;47304;47.456;19.160;2023-03-26T04:56:48;99750.95;;;6.63;61.53
61436;BME280;47304;47.456;19.160;2023-03-26T04:59:20;99748.73;;;6.70;61.24
61436;BME280;47304;47.456;19.160;2023-03-26T05:01:47;99741.64;;;6.79;60.93
61436;BME280;47304;47.456;19.160;2023-03-26T05:04:14;99750.03;;;6.88;60.83
61436;BME280;47304;47.456;19.160;2023-03-26T05:06:41;99746.61;;;6.98;60.61
61436;BME280;47304;47.456;19.160;2023-03-26T05:09:07;99738.29;;;7.06;60.33
61436;BME280;47304;47.456;19.160;2023-03-26T05:11:34;99737.26;;;7.16;60.06
61436;BME280;47304;47.456;19.160;2023-03-26T05:14:00;99729.98;;;7.25;59.79
61436;BME280;47304;47.456;19.160;2023-03-26T05:16:27;99726.34;;;7.35;59.53
61436;BME280;47304;47.456;19.160;2023-03-26T05:18:54;99725.84;;;7.45;59.30
61436;BME280;47304;47.456;19.160;2023-03-26T05:21:21;99725.69;;;7.56;59.02
61436;BME280;47304;47.456;19.160;2023-03-26T05:23:48;99726.92;;;7.69;58.77
61436;BME280;47304;47.456;19.160;2023-03-26T05:26:14;99728.32;;;7.80;58.60
61436;BME280;47304;47.456;19.160;2023-03-26T05:28:41;99728.50;;;7.90;58.32
61436;BME280;47304;47.456;19.160;2023-03-26T05:31:08;99728.33;;;8.02;58.12
61436;BME280;47304;47.456;19.160;2023-03-26T05:33:35;99724.66;;;8.14;57.86
61436;BME280;47304;47.456;19.160;2023-03-26T05:36:07;99724.81;;;8.26;57.55
61436;BME280;47304;47.456;19.160;2023-03-26T05:38:35;99722.18;;;8.38;57.24
61436;BME280;47304;47.456;19.160;2023-03-26T05:41:05;99725.85;;;8.49;57.01
61436;BME280;47304;47.456;19.160;2023-03-26T05:43:32;99731.59;;;8.62;57.08
61436;BME280;47304;47.456;19.160;2023-03-26T05:45:59;99731.21;;;8.74;56.63
61436;BME280;47304;47.456;19.160;2023-03-26T05:48:26;99731.16;;;8.86;56.31
61436;BME280;47304;47.456;19.160;2023-03-26T05:50:54;99734.11;;;8.94;55.85
61436;BME280;47304;47.456;19.160;2023-03-26T05:53:23;99734.08;;;8.99;55.70
61436;BME280;47304;47.456;19.160;2023-03-26T05:55:50;99731.96;;;9.07;55.61
61436;BME280;47304;47.456;19.160;2023-03-26T05:58:17;99728.60;;;9.16;55.28
61436;BME280;47304;47.456;19.160;2023-03-26T06:00:46;99727.85;;;9.25;55.23
61436;BME280;47304;47.456;19.160;2023-03-26T06:03:13;99729.19;;;9.35;54.91
61436;BME280;47304;47.456;19.160;2023-03-26T06:05:40;99727.57;;;9.44;54.77
61436;BME280;47304;47.456;19.160;2023-03-26T06:08:07;99724.73;;;9.51;54.53
61436;BME280;47304;47.456;19.160;2023-03-26T06:10:37;99726.27;;;9.56;53.97
61436;BME280;47304;47.456;19.160;2023-03-26T06:13:04;99720.83;;;9.59;53.96
61436;BME280;47304;47.456;19.160;2023-03-26T06:15:31;99716.45;;;9.61;53.57
61436;BME280;47304;47.456;19.160;2023-03-26T06:17:57;99716.76;;;9.65;53.49
61436;BME280;47304;47.456;19.160;2023-03-26T06:20:24;99717.94;;;9.71;53.27
61436;BME280;47304;47.456;19.160;2023-03-26T06:22:51;99710.38;;;9.77;53.34
61436;BME280;47304;47.456;19.160;2023-03-26T06:25:18;99710.31;;;9.85;53.09
61436;BME280;47304;47.456;19.160;2023-03-26T06:27:44;99712.19;;;9.91;52.47
61436;BME280;47304;47.456;19.160;2023-03-26T06:30:11;99708.99;;;9.96;52.59
61436;BME280;47304;47.456;19.160;2023-03-26T06:32:38;99706.13;;;10.04;52.60
61436;BME280;47304;47.456;19.160;2023-03-26T06:35:05;99706.41;;;10.12;52.49
61436;BME280;47304;47.456;19.160;2023-03-26T06:37:34;99705.10;;;10.22;52.20
61436;BME280;47304;47.456;19.160;2023-03-26T06:40:00;99709.38;;;10.31;51.92
61436;BME280;47304;47.456;19.160;2023-03-26T06:42:27;99718.96;;;10.38;51.82
61436;BME280;47304;47.456;19.160;2023-03-26T06:45:14;99714.67;;;10.47;51.63
61436;BME280;47304;47.456;19.160;2023-03-26T06:47:41;99720.75;;;10.53;51.47
61436;BME280;47304;47.456;19.160;2023-03-26T06:50:09;99720.51;;;10.60;50.98
61436;BME280;47304;47.456;19.160;2023-03-26T06:52:36;99720.10;;;10.66;50.85
61436;BME280;47304;47.456;19.160;2023-03-26T06:55:04;99717.56;;;10.72;50.81
61436;BME280;47304;47.456;19.160;2023-03-26T06:57:31;99721.14;;;10.82;50.80
61436;BME280;47304;47.456;19.160;2023-03-26T06:59:58;99720.33;;;10.90;50.47
61436;BME280;47304;47.456;19.160;2023-03-26T07:02:25;99720.75;;;10.99;50.62
61436;BME280;47304;47.456;19.160;2023-03-26T07:04:51;99719.58;;;11.09;50.52
61436;BME280;47304;47.456;19.160;2023-03-26T07:07:18;99714.33;;;11.21;50.17
61436;BME280;47304;47.456;19.160;2023-03-26T07:09:45;99709.80;;;11.32;49.89
61436;BME280;47304;47.456;19.160;2023-03-26T07:12:11;99708.25;;;11.42;49.45
61436;BME280;47304;47.456;19.160;2023-03-26T07:14:38;99702.84;;;11.52;49.34
61436;BME280;47304;47.456;19.160;2023-03-26T07:17:04;99706.88;;;11.64;49.14
61436;BME280;47304;47.456;19.160;2023-03-26T07:19:31;99706.70;;;11.76;49.00
61436;BME280;47304;47.456;19.160;2023-03-26T07:21:58;99711.57;;;11.89;48.77
61436;BME280;47304;47.456;19.160;2023-03-26T07:24:25;99710.17;;;12.01;47.89
61436;BME280;47304;47.456;19.160;2023-03-26T07:29:45;99721.23;;;12.22;47.77
61436;BME280;47304;47.456;19.160;2023-03-26T07:32:19;99727.02;;;12.23;47.96
61436;BME280;47304;47.456;19.160;2023-03-26T07:35:15;99723.19;;;12.20;48.66
61436;BME280;47304;47.456;19.160;2023-03-26T07:46:02;99728.90;;;12.05;49.52
61436;BME280;47304;47.456;19.160;2023-03-26T07:48:43;99728.61;;;12.12;49.32
61436;BME280;47304;47.456;19.160;2023-03-26T07:51:25;99729.27;;;12.23;48.68
61436;BME280;47304;47.456;19.160;2023-03-26T07:53:52;99727.10;;;12.38;48.40
61436;BME280;47304;47.456;19.160;2023-03-26T07:56:25;99724.48;;;12.56;48.44
61436;BME280;47304;47.456;19.160;2023-03-26T08:15:36;99714.47;;;13.34;47.07
61436;BME280;47304;47.456;19.160;2023-03-26T08:23:11;99698.50;;;13.56;45.09
61436;BME280;47304;47.456;19.160;2023-03-26T08:28:31;99701.88;;;13.77;45.26
61436;BME280;47304;47.456;19.160;2023-03-26T08:31:00;99704.48;;;13.86;44.73
61436;BME280;47304;47.456;19.160;2023-03-26T08:33:27;99704.64;;;13.87;44.12
61436;BME280;47304;47.456;19.160;2023-03-26T08:35:55;99701.64;;;13.87;44.02
61436;BME280;47304;47.456;19.160;2023-03-26T08:38:22;99698.98;;;13.81;44.06
61436;BME280;47304;47.456;19.160;2023-03-26T08:40:58;99701.23;;;13.81;43.93
61436;BME280;47304;47.456;19.160;2023-03-26T08:55:52;99693.45;;;14.12;44.19
61436;BME280;47304;47.456;19.160;2023-03-26T09:18:00;99683.32;;;15.24;40.61
61436;BME280;47304;47.456;19.160;2023-03-26T09:23:44;99674.08;;;15.65;40.10
61436;BME280;47304;47.456;19.160;2023-03-26T09:39:35;99663.27;;;17.17;36.63
61436;BME280;47304;47.456;19.160;2023-03-26T09:42:23;99651.41;;;17.44;35.88
61436;BME280;47304;47.456;19.160;2023-03-26T10:11:55;99599.31;;;18.14;33.25
61436;BME280;47304;47.456;19.160;2023-03-26T10:25:12;99592.45;;;18.16;33.19
61436;BME280;47304;47.456;19.160;2023-03-26T10:36:26;99633.95;;;16.54;42.72
61436;BME280;47304;47.456;19.160;2023-03-26T10:42:23;99650.27;;;14.90;52.81
61436;BME280;47304;47.456;19.160;2023-03-26T10:47:58;99628.82;;;13.26;53.29
61436;BME280;47304;47.456;19.160;2023-03-26T10:56:31;99589.23;;;14.40;53.40
61436;BME280;47304;47.456;19.160;2023-03-26T10:59:10;99576.62;;;17.61;48.70
61436;BME280;47304;47.456;19.160;2023-03-26T11:02:21;99558.71;;;20.46;43.37
61436;BME280;47304;47.456;19.160;2023-03-26T11:08:19;99528.84;;;27.26;31.96
61436;BME280;47304;47.456;19.160;2023-03-26T11:11:10;99527.50;;;26.07;30.78
61436;BME280;47304;47.456;19.160;2023-03-26T11:25:40;99529.02;;;18.99;38.96
61436;BME280;47304;47.456;19.160;2023-03-26T11:29:04;99525.15;;;17.94;40.75
61436;BME280;47304;47.456;19.160;2023-03-26T11:31:55;99513.38;;;17.35;43.24
61436;BME280;47304;47.456;19.160;2023-03-26T11:34:29;99506.73;;;17.78;43.75
61436;BME280;47304;47.456;19.160;2023-03-26T11:37:00;99498.98;;;18.48;42.60
61436;BME280;47304;47.456;19.160;2023-03-26T11:39:31;99491.51;;;18.60;42.26
61436;BME280;47304;47.456;19.160;2023-03-26T11:42:08;99486.27;;;18.09;42.27
61436;BME280;47304;47.456;19.160;2023-03-26T11:44:41;99480.73;;;17.57;42.64
61436;BME280;47304;47.456;19.160;2023-03-26T11:47:12;99474.61;;;17.14;43.06
61436;BME280;47304;47.456;19.160;2023-03-26T11:49:43;99468.39;;;16.97;43.75
61436;BME280;47304;47.456;19.160;2023-03-26T11:52:11;99470.72;;;17.17;43.07
61436;BME280;47304;47.456;19.160;2023-03-26T11:54:40;99464.46;;;17.36;43.76
61436;BME280;47304;47.456;19.160;2023-03-26T11:57:11;99461.34;;;17.51;42.01
61436;BME280;47304;47.456;19.160;2023-03-26T11:59:43;99453.96;;;17.58;41.88
61436;BME280;47304;47.456;19.160;2023-03-26T12:02:30;99452.04;;;17.53;41.40
61436;BME280;47304;47.456;19.160;2023-03-26T12:05:19;99442.81;;;17.38;41.68
61436;BME280;47304;47.456;19.160;2023-03-26T12:07:53;99437.41;;;17.27;41.10
61436;BME280;47304;47.456;19.160;2023-03-26T12:10:42;99428.38;;;17.23;40.35
61436;BME280;47304;47.456;19.160;2023-03-26T12:16:03;99411.88;;;17.28;41.09
61436;BME280;47304;47.456;19.160;2023-03-26T12:18:32;99408.40;;;17.27;40.73
61436;BME280;47304;47.456;19.160;2023-03-26T12:26:17;99398.38;;;17.00;39.77
61436;BME280;47304;47.456;19.160;2023-03-26T12:28:48;99388.42;;;16.97;40.50
61436;BME280;47304;47.456;19.160;2023-03-26T12:31:17;99376.17;;;17.02;40.57
61436;BME280;47304;47.456;19.160;2023-03-26T12:34:02;99375.20;;;17.04;40.38
61436;BME280;47304;47.456;19.160;2023-03-26T12:36:30;99373.23;;;17.09;39.43
61436;BME280;47304;47.456;19.160;2023-03-26T12:38:58;99360.45;;;17.22;38.90
61436;BME280;47304;47.456;19.160;2023-03-26T12:41:53;99357.55;;;17.48;38.09
61436;BME280;47304;47.456;19.160;2023-03-26T12:44:45;99353.48;;;17.75;37.68
61436;BME280;47304;47.456;19.160;2023-03-26T12:47:29;99343.70;;;18.03;38.37
61436;BME280;47304;47.456;19.160;2023-03-26T12:50:16;99337.34;;;18.29;36.62
61436;BME280;47304;47.456;19.160;2023-03-26T12:53:49;99334.80;;;18.34;36.44
61436;BME280;47304;47.456;19.160;2023-03-26T12:56:14;99330.23;;;18.37;36.00
61436;BME280;47304;47.456;19.160;2023-03-26T12:59:10;99327.13;;;18.42;34.99
61436;BME280;47304;47.456;19.160;2023-03-26T13:01:51;99324.86;;;18.41;33.55
61436;BME280;47304;47.456;19.160;2023-03-26T13:04:35;99320.67;;;18.36;33.25
61436;BME280;47304;47.456;19.160;2023-03-26T13:13:10;99308.89;;;18.23;31.42
61436;BME280;47304;47.456;19.160;2023-03-26T13:15:47;99304.16;;;18.11;31.47
61436;BME280;47304;47.456;19.160;2023-03-26T13:18:46;99299.39;;;18.00;31.30
61436;BME280;47304;47.456;19.160;2023-03-26T13:23:56;99289.66;;;17.84;32.47
61436;BME280;47304;47.456;19.160;2023-03-26T13:42:40;99254.33;;;17.56;31.86
61436;BME280;47304;47.456;19.160;2023-03-26T13:47:45;99249.70;;;17.67;31.81
61436;BME280;47304;47.456;19.160;2023-03-26T13:50:22;99247.73;;;17.75;32.02
61436;BME280;47304;47.456;19.160;2023-03-26T13:53:59;99241.14;;;17.76;31.37
61436;BME280;47304;47.456;19.160;2023-03-26T13:55:56;99242.70;;;17.73;30.65
61436;BME280;47304;47.456;19.160;2023-03-26T13:58:29;99235.83;;;17.69;30.83
61436;BME280;47304;47.456;19.160;2023-03-26T14:01:19;99237.27;;;17.64;30.37
61436;BME280;47304;47.456;19.160;2023-03-26T14:04:07;99226.22;;;17.59;30.70
61436;BME280;47304;47.456;19.160;2023-03-26T14:06:57;99222.12;;;17.55;30.84
61436;BME280;47304;47.456;19.160;2023-03-26T14:09:37;99219.08;;;17.56;30.69
61436;BME280;47304;47.456;19.160;2023-03-26T14:12:17;99210.26;;;17.59;31.03
61436;BME280;47304;47.456;19.160;2023-03-26T14:14:52;99201.07;;;17.66;30.65
61436;BME280;47304;47.456;19.160;2023-03-26T14:22:37;99198.54;;;18.18;30.47
61436;BME280;47304;47.456;19.160;2023-03-26T14:34:50;99175.30;;;19.84;28.71
61436;BME280;47304;47.456;19.160;2023-03-26T14:54:05;99159.72;;;21.08;24.87
61436;BME280;47304;47.456;19.160;2023-03-26T14:56:58;99149.60;;;20.94;24.41
61436;BME280;47304;47.456;19.160;2023-03-26T15:07:40;99128.42;;;19.93;24.59
61436;BME280;47304;47.456;19.160;2023-03-26T15:13:48;99116.77;;;19.36;25.24
61436;BME280;47304;47.456;19.160;2023-03-26T15:16:53;99121.45;;;19.12;25.34
61436;BME280;47304;47.456;19.160;2023-03-26T15:30:48;99103.40;;;18.55;27.28
61436;BME280;47304;47.456;19.160;2023-03-26T15:36:49;99093.44;;;18.19;28.71
61436;BME280;47304;47.456;19.160;2023-03-26T15:39:45;99096.25;;;17.94;28.98
61436;BME280;47304;47.456;19.160;2023-03-26T15:42:29;99093.06;;;17.80;29.38
61436;BME280;47304;47.456;19.160;2023-03-26T15:58:55;99085.66;;;17.72;29.73
61436;BME280;47304;47.456;19.160;2023-03-26T16:01:27;99086.19;;;17.61;29.75
61436;BME280;47304;47.456;19.160;2023-03-26T16:06:58;99071.16;;;17.65;29.56
61436;BME280;47304;47.456;19.160;2023-03-26T16:17:17;99059.77;;;17.19;30.54
61436;BME280;47304;47.456;19.160;2023-03-26T16:22:15;99047.14;;;16.79;31.07
61436;BME280;47304;47.456;19.160;2023-03-26T16:28:20;99034.67;;;16.31;31.99
61436;BME280;47304;47.456;19.160;2023-03-26T16:33:58;99016.94;;;15.92;32.55
61436;BME280;47304;47.456;19.160;2023-03-26T16:36:46;99017.40;;;15.77;32.88
61436;BME280;47304;47.456;19.160;2023-03-26T16:39:20;99021.28;;;15.65;32.87
61436;BME280;47304;47.456;19.160;2023-03-26T16:41:51;99017.21;;;15.53;32.81
61436;BME280;47304;47.456;19.160;2023-03-26T16:52:20;99016.40;;;15.12;33.35
61436;BME280;47304;47.456;19.160;2023-03-26T16:55:00;99020.34;;;15.02;33.50
61436;BME280;47304;47.456;19.160;2023-03-26T16:57:44;99023.33;;;14.93;33.68
61436;BME280;47304;47.456;19.160;2023-03-26T17:08:26;99024.84;;;14.58;34.77
61436;BME280;47304;47.456;19.160;2023-03-26T17:13:59;99021.62;;;14.45;34.97
61436;BME280;47304;47.456;19.160;2023-03-26T17:16:37;99025.63;;;14.37;35.25
61436;BME280;47304;47.456;19.160;2023-03-26T17:19:22;99026.36;;;14.31;35.33
61436;BME280;47304;47.456;19.160;2023-03-26T17:24:37;99023.03;;;14.21;35.68
61436;BME280;47304;47.456;19.160;2023-03-26T17:32:57;99023.60;;;14.11;36.21
61436;BME280;47304;47.456;19.160;2023-03-26T17:35:48;99025.13;;;14.07;36.21
61436;BME280;47304;47.456;19.160;2023-03-26T17:40:54;99021.85;;;14.00;36.36
61436;BME280;47304;47.456;19.160;2023-03-26T17:46:38;99018.52;;;13.95;36.65
61436;BME280;47304;47.456;19.160;2023-03-26T17:49:13;99024.25;;;13.92;36.48
61436;BME280;47304;47.456;19.160;2023-03-26T17:51:50;99022.59;;;13.89;36.64
61436;BME280;47304;47.456;19.160;2023-03-26T17:54:21;99025.83;;;13.87;36.64
61436;BME280;47304;47.456;19.160;2023-03-26T17:56:51;99024.48;;;13.85;36.63
61436;BME280;47304;47.456;19.160;2023-03-26T17:59:21;99022.29;;;13.83;36.95
61436;BME280;47304;47.456;19.160;2023-03-26T18:01:54;99021.98;;;13.81;36.87
61436;BME280;47304;47.456;19.160;2023-03-26T18:04:30;99017.10;;;13.80;37.15
61436;BME280;47304;47.456;19.160;2023-03-26T18:15:28;99019.94;;;13.74;37.95
61436;BME280;47304;47.456;19.160;2023-03-26T18:18:07;99015.19;;;13.74;37.74
61436;BME280;47304;47.456;19.160;2023-03-26T18:20:35;99011.48;;;13.74;37.92
61436;BME280;47304;47.456;19.160;2023-03-26T18:23:10;99012.89;;;13.75;38.28
61436;BME280;47304;47.456;19.160;2023-03-26T18:25:38;99003.71;;;13.75;38.59
61436;BME280;47304;47.456;19.160;2023-03-26T18:28:04;99005.47;;;13.76;38.91
61436;BME280;47304;47.456;19.160;2023-03-26T18:30:31;99006.52;;;13.76;38.88
61436;BME280;47304;47.456;19.160;2023-03-26T18:33:03;99002.63;;;13.76;39.46
61436;BME280;47304;47.456;19.160;2023-03-26T18:35:44;99009.30;;;13.77;39.01
61436;BME280;47304;47.456;19.160;2023-03-26T18:38:16;99002.45;;;13.77;39.45
61436;BME280;47304;47.456;19.160;2023-03-26T18:41:00;98994.23;;;13.75;39.49
61436;BME280;47304;47.456;19.160;2023-03-26T18:43:27;98993.38;;;13.74;40.49
61436;BME280;47304;47.456;19.160;2023-03-26T18:46:02;98985.90;;;13.71;40.96
61436;BME280;47304;47.456;19.160;2023-03-26T18:48:29;98987.04;;;13.69;41.28
61436;BME280;47304;47.456;19.160;2023-03-26T18:50:59;98982.28;;;13.69;41.58
61436;BME280;47304;47.456;19.160;2023-03-26T18:53:36;98981.10;;;13.68;42.27
61436;BME280;47304;47.456;19.160;2023-03-26T18:56:27;98979.91;;;13.67;41.75
61436;BME280;47304;47.456;19.160;2023-03-26T18:58:57;98978.02;;;13.65;40.68
61436;BME280;47304;47.456;19.160;2023-03-26T19:01:26;98970.37;;;13.63;40.21
61436;BME280;47304;47.456;19.160;2023-03-26T19:03:53;98960.41;;;13.61;39.94